Weather at VA Medical Center Long Beach Heliport [CLOSED]

Public forecast

Using degrees Fahrenheit for public forecast. Weather courtesy of forecast.io.

Closest aviation weather report (METAR) to VA Medical Center Long Beach Heliport

Closest report is Long Beach Airport (Daugherty Field), 3.0 nm (5.5 km) NNW. Retrieved 2022/01/27 06:53 UTC (35 minutes ago):

KLGB 270653Z 07005KT 7SM CLR 10/08 A3013 RMK AO2 SLP203 T01000083

Closest aviation forecast (TAF) to VA Medical Center Long Beach Heliport

Closest forecast is Long Beach Airport (Daugherty Field), 3.0 nm (5.5 km) NNW. Retrieved 2022/01/27 06:40 UTC (48 minutes ago):

TAF KLGB 270538Z 2706/2806 VRB03KT P6SM SKC FM272100 25005KT P6SM SKC FM280000 30005KT P6SM SKC FM280300 VRB03KT P6SM SKC